sensor_id;sensor_type;location;lat;lon;timestamp;P1;durP1;ratioP1;P2;durP2;ratioP2
41643;SDS011;44236;48.098;11.582;2023-03-13T00:01:59;3.00;;;1.15;;
41643;SDS011;44236;48.098;11.582;2023-03-13T00:04:25;5.88;;;0.98;;
41643;SDS011;44236;48.098;11.582;2023-03-13T00:06:51;2.90;;;1.02;;
41643;SDS011;44236;48.098;11.582;2023-03-13T00:09:16;5.68;;;2.88;;
41643;SDS011;44236;48.098;11.582;2023-03-13T00:11:43;4.13;;;1.45;;
41643;SDS011;44236;48.098;11.582;2023-03-13T00:14:11;2.08;;;1.13;;
41643;SDS011;44236;48.098;11.582;2023-03-13T00:16:37;4.00;;;0.93;;
41643;SDS011;44236;48.098;11.582;2023-03-13T00:19:03;2.95;;;0.95;;
41643;SDS011;44236;48.098;11.582;2023-03-13T00:21:31;2.42;;;1.25;;
41643;SDS011;44236;48.098;11.582;2023-03-13T00:23:57;3.33;;;1.40;;
41643;SDS011;44236;48.098;11.582;2023-03-13T00:26:25;4.32;;;1.23;;
41643;SDS011;44236;48.098;11.582;2023-03-13T00:28:52;2.35;;;1.33;;
41643;SDS011;44236;48.098;11.582;2023-03-13T00:31:22;2.42;;;1.15;;
41643;SDS011;44236;48.098;11.582;2023-03-13T00:33:53;2.95;;;1.08;;
41643;SDS011;44236;48.098;11.582;2023-03-13T00:36:22;2.22;;;1.10;;
41643;SDS011;44236;48.098;11.582;2023-03-13T00:38:50;4.47;;;1.17;;
41643;SDS011;44236;48.098;11.582;2023-03-13T00:41:18;2.97;;;1.33;;
41643;SDS011;44236;48.098;11.582;2023-03-13T00:43:46;2.50;;;1.00;;
41643;SDS011;44236;48.098;11.582;2023-03-13T00:46:13;2.55;;;1.50;;
41643;SDS011;44236;48.098;11.582;2023-03-13T00:48:43;3.10;;;1.23;;
41643;SDS011;44236;48.098;11.582;2023-03-13T00:51:09;2.50;;;1.25;;
41643;SDS011;44236;48.098;11.582;2023-03-13T00:53:35;1.77;;;1.02;;
41643;SDS011;44236;48.098;11.582;2023-03-13T00:58:32;1.92;;;0.80;;
41643;SDS011;44236;48.098;11.582;2023-03-13T01:01:33;1.38;;;0.80;;
41643;SDS011;44236;48.098;11.582;2023-03-13T01:03:57;2.72;;;1.05;;
41643;SDS011;44236;48.098;11.582;2023-03-13T01:06:26;2.85;;;1.42;;
41643;SDS011;44236;48.098;11.582;2023-03-13T01:08:53;1.95;;;0.90;;
41643;SDS011;44236;48.098;11.582;2023-03-13T01:11:20;3.03;;;0.70;;
41643;SDS011;44236;48.098;11.582;2023-03-13T01:13:48;2.97;;;0.98;;
41643;SDS011;44236;48.098;11.582;2023-03-13T01:16:18;2.13;;;0.90;;
41643;SDS011;44236;48.098;11.582;2023-03-13T01:18:46;1.75;;;0.70;;
41643;SDS011;44236;48.098;11.582;2023-03-13T01:21:14;2.22;;;1.00;;
41643;SDS011;44236;48.098;11.582;2023-03-13T01:23:43;1.83;;;0.90;;
41643;SDS011;44236;48.098;11.582;2023-03-13T01:26:08;4.68;;;1.00;;
41643;SDS011;44236;48.098;11.582;2023-03-13T01:28:34;1.30;;;0.93;;
41643;SDS011;44236;48.098;11.582;2023-03-13T01:31:09;2.58;;;1.13;;
41643;SDS011;44236;48.098;11.582;2023-03-13T01:33:37;2.28;;;1.20;;
41643;SDS011;44236;48.098;11.582;2023-03-13T01:36:03;1.73;;;0.90;;
41643;SDS011;44236;48.098;11.582;2023-03-13T01:38:29;1.85;;;0.82;;
41643;SDS011;44236;48.098;11.582;2023-03-13T01:40:54;2.30;;;1.00;;
41643;SDS011;44236;48.098;11.582;2023-03-13T01:43:24;3.63;;;1.13;;
41643;SDS011;44236;48.098;11.582;2023-03-13T01:48:33;1.58;;;1.05;;
41643;SDS011;44236;48.098;11.582;2023-03-13T01:51:04;4.40;;;1.40;;
41643;SDS011;44236;48.098;11.582;2023-03-13T01:53:39;2.45;;;1.10;;
41643;SDS011;44236;48.098;11.582;2023-03-13T01:56:09;2.50;;;1.00;;
41643;SDS011;44236;48.098;11.582;2023-03-13T01:58:38;1.73;;;0.90;;
41643;SDS011;44236;48.098;11.582;2023-03-13T02:01:04;1.35;;;0.77;;
41643;SDS011;44236;48.098;11.582;2023-03-13T02:03:30;1.75;;;1.00;;
41643;SDS011;44236;48.098;11.582;2023-03-13T02:05:57;1.67;;;0.90;;
41643;SDS011;44236;48.098;11.582;2023-03-13T02:08:35;2.38;;;0.88;;
41643;SDS011;44236;48.098;11.582;2023-03-13T02:11:12;1.63;;;1.08;;
41643;SDS011;44236;48.098;11.582;2023-03-13T02:13:47;2.58;;;1.05;;
41643;SDS011;44236;48.098;11.582;2023-03-13T02:16:14;3.97;;;0.95;;
41643;SDS011;44236;48.098;11.582;2023-03-13T02:18:40;1.50;;;0.73;;
41643;SDS011;44236;48.098;11.582;2023-03-13T02:21:12;3.25;;;1.02;;
41643;SDS011;44236;48.098;11.582;2023-03-13T02:23:57;6.07;;;1.27;;
41643;SDS011;44236;48.098;11.582;2023-03-13T02:26:28;2.22;;;0.80;;
41643;SDS011;44236;48.098;11.582;2023-03-13T02:28:54;1.80;;;0.75;;
41643;SDS011;44236;48.098;11.582;2023-03-13T02:31:20;2.97;;;1.08;;
41643;SDS011;44236;48.098;11.582;2023-03-13T02:33:45;1.42;;;0.70;;
41643;SDS011;44236;48.098;11.582;2023-03-13T02:36:12;1.48;;;0.77;;
41643;SDS011;44236;48.098;11.582;2023-03-13T02:38:45;1.25;;;0.75;;
41643;SDS011;44236;48.098;11.582;2023-03-13T02:41:18;1.83;;;1.10;;
41643;SDS011;44236;48.098;11.582;2023-03-13T02:43:47;1.52;;;0.82;;
41643;SDS011;44236;48.098;11.582;2023-03-13T02:46:14;1.60;;;0.80;;
41643;SDS011;44236;48.098;11.582;2023-03-13T02:48:43;2.92;;;0.90;;
41643;SDS011;44236;48.098;11.582;2023-03-13T02:51:21;1.20;;;0.75;;
41643;SDS011;44236;48.098;11.582;2023-03-13T02:54:01;2.20;;;0.98;;
41643;SDS011;44236;48.098;11.582;2023-03-13T02:56:37;1.40;;;0.82;;
41643;SDS011;44236;48.098;11.582;2023-03-13T02:59:04;2.67;;;1.02;;
41643;SDS011;44236;48.098;11.582;2023-03-13T03:01:31;1.77;;;1.02;;
41643;SDS011;44236;48.098;11.582;2023-03-13T03:03:57;1.40;;;0.80;;
41643;SDS011;44236;48.098;11.582;2023-03-13T03:06:22;1.65;;;0.73;;
41643;SDS011;44236;48.098;11.582;2023-03-13T03:08:48;1.25;;;0.80;;
41643;SDS011;44236;48.098;11.582;2023-03-13T03:11:14;2.50;;;1.00;;
41643;SDS011;44236;48.098;11.582;2023-03-13T03:13:43;1.48;;;0.73;;
41643;SDS011;44236;48.098;11.582;2023-03-13T03:16:09;3.10;;;0.82;;
41643;SDS011;44236;48.098;11.582;2023-03-13T03:18:39;4.10;;;0.90;;
41643;SDS011;44236;48.098;11.582;2023-03-13T03:21:04;1.52;;;0.80;;
41643;SDS011;44236;48.098;11.582;2023-03-13T03:23:31;2.50;;;0.90;;
41643;SDS011;44236;48.098;11.582;2023-03-13T03:25:57;1.75;;;0.80;;
41643;SDS011;44236;48.098;11.582;2023-03-13T03:28:23;2.10;;;0.73;;
41643;SDS011;44236;48.098;11.582;2023-03-13T03:30:49;1.45;;;0.55;;
41643;SDS011;44236;48.098;11.582;2023-03-13T03:33:17;1.92;;;0.70;;
41643;SDS011;44236;48.098;11.582;2023-03-13T03:35:42;1.65;;;0.82;;
41643;SDS011;44236;48.098;11.582;2023-03-13T03:38:08;1.10;;;0.70;;
41643;SDS011;44236;48.098;11.582;2023-03-13T03:40:34;1.50;;;0.90;;
41643;SDS011;44236;48.098;11.582;2023-03-13T03:42:59;1.23;;;0.80;;
41643;SDS011;44236;48.098;11.582;2023-03-13T03:45:25;1.40;;;0.77;;
41643;SDS011;44236;48.098;11.582;2023-03-13T03:47:50;1.08;;;0.80;;
41643;SDS011;44236;48.098;11.582;2023-03-13T03:50:16;1.65;;;0.70;;
41643;SDS011;44236;48.098;11.582;2023-03-13T03:52:42;1.00;;;0.60;;
41643;SDS011;44236;48.098;11.582;2023-03-13T03:55:07;0.90;;;0.60;;
41643;SDS011;44236;48.098;11.582;2023-03-13T03:57:33;0.75;;;0.68;;
41643;SDS011;44236;48.098;11.582;2023-03-13T03:59:59;1.70;;;0.60;;
41643;SDS011;44236;48.098;11.582;2023-03-13T04:02:25;1.58;;;0.80;;
41643;SDS011;44236;48.098;11.582;2023-03-13T04:04:50;3.70;;;1.10;;
41643;SDS011;44236;48.098;11.582;2023-03-13T04:07:16;1.73;;;0.70;;
41643;SDS011;44236;48.098;11.582;2023-03-13T04:09:41;1.60;;;0.70;;
41643;SDS011;44236;48.098;11.582;2023-03-13T04:12:07;1.58;;;0.77;;
41643;SDS011;44236;48.098;11.582;2023-03-13T04:14:33;0.80;;;0.50;;
41643;SDS011;44236;48.098;11.582;2023-03-13T04:16:58;1.38;;;0.70;;
41643;SDS011;44236;48.098;11.582;2023-03-13T04:19:24;2.15;;;0.90;;
41643;SDS011;44236;48.098;11.582;2023-03-13T04:21:50;1.65;;;0.98;;
41643;SDS011;44236;48.098;11.582;2023-03-13T04:24:15;1.05;;;0.60;;
41643;SDS011;44236;48.098;11.582;2023-03-13T04:26:41;2.22;;;0.60;;
41643;SDS011;44236;48.098;11.582;2023-03-13T04:29:06;1.58;;;0.80;;
41643;SDS011;44236;48.098;11.582;2023-03-13T04:31:32;0.70;;;0.55;;
41643;SDS011;44236;48.098;11.582;2023-03-13T04:33:57;1.20;;;0.60;;
41643;SDS011;44236;48.098;11.582;2023-03-13T04:36:23;0.93;;;0.57;;
41643;SDS011;44236;48.098;11.582;2023-03-13T04:38:49;1.27;;;0.70;;
41643;SDS011;44236;48.098;11.582;2023-03-13T04:41:14;0.45;;;0.43;;
41643;SDS011;44236;48.098;11.582;2023-03-13T04:43:40;0.90;;;0.70;;
41643;SDS011;44236;48.098;11.582;2023-03-13T04:46:05;1.23;;;0.80;;
41643;SDS011;44236;48.098;11.582;2023-03-13T04:48:31;0.40;;;0.40;;
41643;SDS011;44236;48.098;11.582;2023-03-13T04:50:56;0.80;;;0.50;;
41643;SDS011;44236;48.098;11.582;2023-03-13T04:53:22;1.25;;;0.60;;
41643;SDS011;44236;48.098;11.582;2023-03-13T04:55:48;0.98;;;0.68;;
41643;SDS011;44236;48.098;11.582;2023-03-13T04:58:14;1.10;;;0.60;;
41643;SDS011;44236;48.098;11.582;2023-03-13T05:00:40;1.65;;;0.70;;
41643;SDS011;44236;48.098;11.582;2023-03-13T05:03:06;1.60;;;0.65;;
41643;SDS011;44236;48.098;11.582;2023-03-13T05:05:34;1.25;;;0.63;;
41643;SDS011;44236;48.098;11.582;2023-03-13T05:08:00;0.98;;;0.70;;
41643;SDS011;44236;48.098;11.582;2023-03-13T05:10:26;1.15;;;0.40;;
41643;SDS011;44236;48.098;11.582;2023-03-13T05:12:52;0.73;;;0.60;;
41643;SDS011;44236;48.098;11.582;2023-03-13T05:15:17;0.77;;;0.60;;
41643;SDS011;44236;48.098;11.582;2023-03-13T05:17:43;1.13;;;0.75;;
41643;SDS011;44236;48.098;11.582;2023-03-13T05:20:09;1.38;;;0.60;;
41643;SDS011;44236;48.098;11.582;2023-03-13T05:22:35;0.85;;;0.70;;
41643;SDS011;44236;48.098;11.582;2023-03-13T05:25:01;0.93;;;0.50;;
41643;SDS011;44236;48.098;11.582;2023-03-13T05:27:28;1.25;;;0.70;;
41643;SDS011;44236;48.098;11.582;2023-03-13T05:29:53;1.17;;;0.63;;
41643;SDS011;44236;48.098;11.582;2023-03-13T05:32:19;2.30;;;0.52;;
41643;SDS011;44236;48.098;11.582;2023-03-13T05:34:44;1.08;;;0.60;;
41643;SDS011;44236;48.098;11.582;2023-03-13T05:37:10;2.53;;;0.80;;
41643;SDS011;44236;48.098;11.582;2023-03-13T05:39:35;2.88;;;0.77;;
41643;SDS011;44236;48.098;11.582;2023-03-13T05:42:01;1.80;;;0.70;;
41643;SDS011;44236;48.098;11.582;2023-03-13T05:44:27;3.60;;;0.70;;
41643;SDS011;44236;48.098;11.582;2023-03-13T05:46:53;2.10;;;0.70;;
41643;SDS011;44236;48.098;11.582;2023-03-13T05:49:19;3.83;;;1.70;;
41643;SDS011;44236;48.098;11.582;2023-03-13T05:51:44;2.17;;;0.80;;
41643;SDS011;44236;48.098;11.582;2023-03-13T05:54:10;5.28;;;1.05;;
41643;SDS011;44236;48.098;11.582;2023-03-13T05:56:36;5.13;;;1.25;;
41643;SDS011;44236;48.098;11.582;2023-03-13T05:59:01;11.50;;;2.55;;
41643;SDS011;44236;48.098;11.582;2023-03-13T06:01:27;14.32;;;1.75;;
41643;SDS011;44236;48.098;11.582;2023-03-13T06:03:53;6.20;;;1.42;;
41643;SDS011;44236;48.098;11.582;2023-03-13T06:06:19;6.00;;;1.80;;
41643;SDS011;44236;48.098;11.582;2023-03-13T06:08:45;6.18;;;1.58;;
41643;SDS011;44236;48.098;11.582;2023-03-13T06:11:10;7.40;;;2.28;;
41643;SDS011;44236;48.098;11.582;2023-03-13T06:13:36;8.98;;;2.65;;
41643;SDS011;44236;48.098;11.582;2023-03-13T06:16:01;9.13;;;1.90;;
41643;SDS011;44236;48.098;11.582;2023-03-13T06:18:27;5.15;;;1.55;;
41643;SDS011;44236;48.098;11.582;2023-03-13T06:20:57;10.07;;;2.38;;
41643;SDS011;44236;48.098;11.582;2023-03-13T06:23:25;7.60;;;1.77;;
41643;SDS011;44236;48.098;11.582;2023-03-13T06:25:50;6.70;;;1.30;;
41643;SDS011;44236;48.098;11.582;2023-03-13T06:28:16;3.38;;;1.00;;
41643;SDS011;44236;48.098;11.582;2023-03-13T06:30:42;12.07;;;2.63;;
41643;SDS011;44236;48.098;11.582;2023-03-13T06:33:07;11.10;;;1.40;;
41643;SDS011;44236;48.098;11.582;2023-03-13T06:35:33;11.02;;;2.17;;
41643;SDS011;44236;48.098;11.582;2023-03-13T06:37:59;12.18;;;1.40;;
41643;SDS011;44236;48.098;11.582;2023-03-13T06:40:24;3.45;;;1.02;;
41643;SDS011;44236;48.098;11.582;2023-03-13T06:42:50;6.45;;;1.75;;
41643;SDS011;44236;48.098;11.582;2023-03-13T06:45:16;9.57;;;1.98;;
41643;SDS011;44236;48.098;11.582;2023-03-13T06:47:41;8.95;;;1.98;;
41643;SDS011;44236;48.098;11.582;2023-03-13T06:50:07;10.30;;;4.82;;
41643;SDS011;44236;48.098;11.582;2023-03-13T06:52:34;12.73;;;4.32;;
41643;SDS011;44236;48.098;11.582;2023-03-13T06:55:02;18.92;;;5.55;;
41643;SDS011;44236;48.098;11.582;2023-03-13T06:57:28;26.77;;;12.18;;
41643;SDS011;44236;48.098;11.582;2023-03-13T06:59:54;31.73;;;11.30;;
41643;SDS011;44236;48.098;11.582;2023-03-13T07:02:19;34.55;;;14.15;;
41643;SDS011;44236;48.098;11.582;2023-03-13T07:04:45;32.95;;;15.77;;
41643;SDS011;44236;48.098;11.582;2023-03-13T07:07:11;34.75;;;14.95;;
41643;SDS011;44236;48.098;11.582;2023-03-13T07:09:36;39.25;;;18.65;;
41643;SDS011;44236;48.098;11.582;2023-03-13T07:12:02;41.22;;;20.27;;
41643;SDS011;44236;48.098;11.582;2023-03-13T07:14:29;38.67;;;18.85;;
41643;SDS011;44236;48.098;11.582;2023-03-13T07:16:57;35.10;;;16.98;;
41643;SDS011;44236;48.098;11.582;2023-03-13T07:19:23;21.98;;;11.38;;
41643;SDS011;44236;48.098;11.582;2023-03-13T07:21:48;21.90;;;11.32;;
41643;SDS011;44236;48.098;11.582;2023-03-13T07:24:16;28.13;;;10.95;;
41643;SDS011;44236;48.098;11.582;2023-03-13T07:26:42;30.73;;;16.65;;
41643;SDS011;44236;48.098;11.582;2023-03-13T07:29:08;25.02;;;13.43;;
41643;SDS011;44236;48.098;11.582;2023-03-13T07:31:34;28.02;;;14.40;;
41643;SDS011;44236;48.098;11.582;2023-03-13T07:33:59;20.38;;;10.90;;
41643;SDS011;44236;48.098;11.582;2023-03-13T07:36:25;15.10;;;7.72;;
41643;SDS011;44236;48.098;11.582;2023-03-13T07:38:51;23.20;;;11.60;;
41643;SDS011;44236;48.098;11.582;2023-03-13T07:41:17;24.55;;;12.77;;
41643;SDS011;44236;48.098;11.582;2023-03-13T07:43:44;30.77;;;13.23;;
41643;SDS011;44236;48.098;11.582;2023-03-13T07:46:14;21.10;;;10.55;;
41643;SDS011;44236;48.098;11.582;2023-03-13T07:48:45;16.70;;;9.20;;
41643;SDS011;44236;48.098;11.582;2023-03-13T07:51:12;21.10;;;7.65;;
41643;SDS011;44236;48.098;11.582;2023-03-13T07:53:43;17.55;;;8.20;;
41643;SDS011;44236;48.098;11.582;2023-03-13T07:56:12;13.57;;;6.22;;
41643;SDS011;44236;48.098;11.582;2023-03-13T07:58:39;16.55;;;7.25;;
41643;SDS011;44236;48.098;11.582;2023-03-13T08:03:34;14.85;;;6.75;;
41643;SDS011;44236;48.098;11.582;2023-03-13T08:06:01;17.38;;;7.63;;
41643;SDS011;44236;48.098;11.582;2023-03-13T08:08:29;20.75;;;8.38;;
41643;SDS011;44236;48.098;11.582;2023-03-13T08:10:58;15.40;;;7.60;;
41643;SDS011;44236;48.098;11.582;2023-03-13T08:13:25;12.45;;;6.25;;
41643;SDS011;44236;48.098;11.582;2023-03-13T08:15:51;16.50;;;7.90;;
41643;SDS011;44236;48.098;11.582;2023-03-13T08:18:16;13.98;;;7.50;;
41643;SDS011;44236;48.098;11.582;2023-03-13T08:20:42;15.13;;;7.20;;
41643;SDS011;44236;48.098;11.582;2023-03-13T08:23:08;14.55;;;7.22;;
41643;SDS011;44236;48.098;11.582;2023-03-13T08:25:33;15.85;;;7.20;;
41643;SDS011;44236;48.098;11.582;2023-03-13T08:27:59;15.73;;;9.10;;
41643;SDS011;44236;48.098;11.582;2023-03-13T08:30:24;12.23;;;6.95;;
41643;SDS011;44236;48.098;11.582;2023-03-13T08:32:50;17.02;;;7.40;;
41643;SDS011;44236;48.098;11.582;2023-03-13T08:35:16;12.98;;;6.72;;
41643;SDS011;44236;48.098;11.582;2023-03-13T08:37:41;11.98;;;6.97;;
41643;SDS011;44236;48.098;11.582;2023-03-13T08:40:07;14.05;;;7.22;;
41643;SDS011;44236;48.098;11.582;2023-03-13T08:42:37;16.02;;;6.45;;
41643;SDS011;44236;48.098;11.582;2023-03-13T08:45:04;11.75;;;5.07;;
41643;SDS011;44236;48.098;11.582;2023-03-13T08:47:31;7.40;;;3.00;;
41643;SDS011;44236;48.098;11.582;2023-03-13T08:49:57;6.03;;;2.65;;
41643;SDS011;44236;48.098;11.582;2023-03-13T08:52:22;4.20;;;1.80;;
41643;SDS011;44236;48.098;11.582;2023-03-13T08:54:48;4.10;;;1.50;;
41643;SDS011;44236;48.098;11.582;2023-03-13T08:57:13;2.65;;;1.20;;
41643;SDS011;44236;48.098;11.582;2023-03-13T08:59:40;3.33;;;1.80;;
41643;SDS011;44236;48.098;11.582;2023-03-13T09:02:07;1.45;;;0.82;;
41643;SDS011;44236;48.098;11.582;2023-03-13T09:04:33;3.17;;;1.60;;
41643;SDS011;44236;48.098;11.582;2023-03-13T09:06:59;0.70;;;0.50;;
41643;SDS011;44236;48.098;11.582;2023-03-13T09:09:24;1.75;;;0.95;;
41643;SDS011;44236;48.098;11.582;2023-03-13T09:11:50;5.22;;;1.58;;
41643;SDS011;44236;48.098;11.582;2023-03-13T09:14:15;3.15;;;1.40;;
41643;SDS011;44236;48.098;11.582;2023-03-13T09:16:41;3.22;;;1.60;;
41643;SDS011;44236;48.098;11.582;2023-03-13T09:19:07;5.50;;;2.55;;
41643;SDS011;44236;48.098;11.582;2023-03-13T09:21:33;3.60;;;1.63;;
41643;SDS011;44236;48.098;11.582;2023-03-13T09:23:59;3.05;;;1.50;;
41643;SDS011;44236;48.098;11.582;2023-03-13T09:26:26;2.92;;;1.67;;
41643;SDS011;44236;48.098;11.582;2023-03-13T09:28:53;2.60;;;1.33;;
41643;SDS011;44236;48.098;11.582;2023-03-13T09:33:47;6.38;;;1.90;;
41643;SDS011;44236;48.098;11.582;2023-03-13T09:36:13;3.03;;;1.38;;
41643;SDS011;44236;48.098;11.582;2023-03-13T09:38:40;2.88;;;1.42;;
41643;SDS011;44236;48.098;11.582;2023-03-13T09:46:10;3.97;;;1.90;;
41643;SDS011;44236;48.098;11.582;2023-03-13T09:48:50;3.38;;;1.60;;
41643;SDS011;44236;48.098;11.582;2023-03-13T09:51:41;4.20;;;1.63;;
41643;SDS011;44236;48.098;11.582;2023-03-13T09:56:48;3.88;;;1.67;;
41643;SDS011;44236;48.098;11.582;2023-03-13T10:01:49;2.15;;;1.10;;
41643;SDS011;44236;48.098;11.582;2023-03-13T10:06:56;5.95;;;2.30;;
41643;SDS011;44236;48.098;11.582;2023-03-13T10:09:27;3.35;;;1.40;;
41643;SDS011;44236;48.098;11.582;2023-03-13T10:14:38;3.05;;;1.30;;
41643;SDS011;44236;48.098;11.582;2023-03-13T10:19:40;2.70;;;1.27;;
41643;SDS011;44236;48.098;11.582;2023-03-13T10:22:18;10.25;;;1.73;;
41643;SDS011;44236;48.098;11.582;2023-03-13T10:27:30;2.95;;;1.50;;
41643;SDS011;44236;48.098;11.582;2023-03-13T10:30:08;2.30;;;1.17;;
41643;SDS011;44236;48.098;11.582;2023-03-13T10:35:24;6.30;;;2.30;;
41643;SDS011;44236;48.098;11.582;2023-03-13T10:37:59;4.97;;;1.83;;
41643;SDS011;44236;48.098;11.582;2023-03-13T10:40:30;5.30;;;1.45;;
41643;SDS011;44236;48.098;11.582;2023-03-13T10:43:04;4.25;;;1.50;;
41643;SDS011;44236;48.098;11.582;2023-03-13T10:45:43;5.25;;;2.25;;
41643;SDS011;44236;48.098;11.582;2023-03-13T10:48:13;11.82;;;2.80;;
41643;SDS011;44236;48.098;11.582;2023-03-13T10:50:46;8.43;;;1.90;;
41643;SDS011;44236;48.098;11.582;2023-03-13T10:55:56;7.22;;;2.63;;
41643;SDS011;44236;48.098;11.582;2023-03-13T10:58:29;13.13;;;3.90;;
41643;SDS011;44236;48.098;11.582;2023-03-13T11:03:46;10.23;;;3.45;;
41643;SDS011;44236;48.098;11.582;2023-03-13T11:06:32;11.75;;;3.15;;
41643;SDS011;44236;48.098;11.582;2023-03-13T11:14:44;23.00;;;5.00;;
41643;SDS011;44236;48.098;11.582;2023-03-13T11:20:35;13.40;;;5.28;;
41643;SDS011;44236;48.098;11.582;2023-03-13T11:23:13;20.58;;;5.45;;
41643;SDS011;44236;48.098;11.582;2023-03-13T11:25:49;19.58;;;6.10;;
41643;SDS011;44236;48.098;11.582;2023-03-13T11:37:13;15.98;;;5.55;;
41643;SDS011;44236;48.098;11.582;2023-03-13T11:50:31;13.63;;;4.43;;
41643;SDS011;44236;48.098;11.582;2023-03-13T12:01:11;13.50;;;4.85;;
41643;SDS011;44236;48.098;11.582;2023-03-13T12:06:34;15.93;;;4.65;;
41643;SDS011;44236;48.098;11.582;2023-03-13T12:09:32;14.10;;;3.90;;
41643;SDS011;44236;48.098;11.582;2023-03-13T12:12:05;16.15;;;4.20;;
41643;SDS011;44236;48.098;11.582;2023-03-13T12:14:44;15.45;;;4.07;;
41643;SDS011;44236;48.098;11.582;2023-03-13T12:17:38;14.13;;;3.70;;
41643;SDS011;44236;48.098;11.582;2023-03-13T12:25:27;17.13;;;4.50;;
41643;SDS011;44236;48.098;11.582;2023-03-13T12:28:19;17.88;;;5.75;;
41643;SDS011;44236;48.098;11.582;2023-03-13T12:33:46;17.67;;;5.85;;
41643;SDS011;44236;48.098;11.582;2023-03-13T12:36:14;16.23;;;4.65;;
41643;SDS011;44236;48.098;11.582;2023-03-13T12:38:55;16.80;;;5.10;;
41643;SDS011;44236;48.098;11.582;2023-03-13T12:41:32;20.50;;;4.97;;
41643;SDS011;44236;48.098;11.582;2023-03-13T12:44:06;17.00;;;4.97;;
41643;SDS011;44236;48.098;11.582;2023-03-13T12:46:36;15.75;;;5.28;;
41643;SDS011;44236;48.098;11.582;2023-03-13T12:59:46;19.63;;;3.85;;
41643;SDS011;44236;48.098;11.582;2023-03-13T13:02:19;16.33;;;5.35;;
41643;SDS011;44236;48.098;11.582;2023-03-13T13:04:51;14.82;;;4.25;;
41643;SDS011;44236;48.098;11.582;2023-03-13T13:12:36;10.95;;;4.00;;
41643;SDS011;44236;48.098;11.582;2023-03-13T13:18:03;12.65;;;4.18;;
41643;SDS011;44236;48.098;11.582;2023-03-13T13:20:42;12.43;;;3.53;;
41643;SDS011;44236;48.098;11.582;2023-03-13T13:25:47;11.93;;;3.42;;
41643;SDS011;44236;48.098;11.582;2023-03-13T13:30:45;10.80;;;3.05;;
41643;SDS011;44236;48.098;11.582;2023-03-13T13:35:44;9.20;;;2.42;;
41643;SDS011;44236;48.098;11.582;2023-03-13T13:46:15;4.78;;;0.90;;
41643;SDS011;44236;48.098;11.582;2023-03-13T13:48:45;6.32;;;1.27;;
41643;SDS011;44236;48.098;11.582;2023-03-13T13:51:18;2.58;;;0.90;;
41643;SDS011;44236;48.098;11.582;2023-03-13T14:01:21;2.72;;;0.90;;
41643;SDS011;44236;48.098;11.582;2023-03-13T14:03:46;3.38;;;1.10;;
41643;SDS011;44236;48.098;11.582;2023-03-13T14:06:22;2.63;;;0.95;;
41643;SDS011;44236;48.098;11.582;2023-03-13T14:08:54;2.03;;;0.75;;
41643;SDS011;44236;48.098;11.582;2023-03-13T14:11:27;3.75;;;0.93;;
41643;SDS011;44236;48.098;11.582;2023-03-13T14:16:38;2.78;;;1.02;;
41643;SDS011;44236;48.098;11.582;2023-03-13T14:22:06;6.95;;;1.20;;
41643;SDS011;44236;48.098;11.582;2023-03-13T14:24:33;6.33;;;1.27;;
41643;SDS011;44236;48.098;11.582;2023-03-13T14:26:59;5.03;;;1.10;;
41643;SDS011;44236;48.098;11.582;2023-03-13T14:29:25;2.20;;;0.90;;
41643;SDS011;44236;48.098;11.582;2023-03-13T14:31:52;2.75;;;0.82;;
41643;SDS011;44236;48.098;11.582;2023-03-13T14:34:22;2.15;;;0.98;;
41643;SDS011;44236;48.098;11.582;2023-03-13T14:37:00;5.43;;;1.40;;
41643;SDS011;44236;48.098;11.582;2023-03-13T14:41:55;1.08;;;0.73;;
41643;SDS011;44236;48.098;11.582;2023-03-13T14:44:36;1.85;;;1.02;;
41643;SDS011;44236;48.098;11.582;2023-03-13T14:47:28;1.37;;;0.83;;
41643;SDS011;44236;48.098;11.582;2023-03-13T14:50:00;4.40;;;1.08;;
41643;SDS011;44236;48.098;11.582;2023-03-13T14:52:32;3.33;;;1.17;;
41643;SDS011;44236;48.098;11.582;2023-03-13T14:55:03;2.53;;;1.52;;
41643;SDS011;44236;48.098;11.582;2023-03-13T14:57:33;2.75;;;0.63;;
41643;SDS011;44236;48.098;11.582;2023-03-13T15:08:18;1.70;;;0.93;;
41643;SDS011;44236;48.098;11.582;2023-03-13T15:10:46;5.38;;;1.10;;
41643;SDS011;44236;48.098;11.582;2023-03-13T15:13:33;2.00;;;0.82;;
41643;SDS011;44236;48.098;11.582;2023-03-13T15:16:01;2.20;;;1.00;;
41643;SDS011;44236;48.098;11.582;2023-03-13T15:18:31;2.42;;;0.88;;
41643;SDS011;44236;48.098;11.582;2023-03-13T15:21:17;2.90;;;0.80;;
41643;SDS011;44236;48.098;11.582;2023-03-13T15:23:53;1.55;;;0.75;;
41643;SDS011;44236;48.098;11.582;2023-03-13T15:26:39;2.15;;;0.90;;
41643;SDS011;44236;48.098;11.582;2023-03-13T15:29:05;1.58;;;0.82;;
41643;SDS011;44236;48.098;11.582;2023-03-13T15:31:31;2.83;;;0.90;;
41643;SDS011;44236;48.098;11.582;2023-03-13T15:33:57;2.17;;;0.80;;
41643;SDS011;44236;48.098;11.582;2023-03-13T15:36:25;2.03;;;0.85;;
41643;SDS011;44236;48.098;11.582;2023-03-13T15:38:52;2.13;;;0.85;;
41643;SDS011;44236;48.098;11.582;2023-03-13T15:41:18;1.58;;;0.85;;
41643;SDS011;44236;48.098;11.582;2023-03-13T15:43:45;1.45;;;0.70;;
41643;SDS011;44236;48.098;11.582;2023-03-13T15:46:11;2.28;;;0.82;;
41643;SDS011;44236;48.098;11.582;2023-03-13T15:48:38;1.58;;;0.85;;
41643;SDS011;44236;48.098;11.582;2023-03-13T15:51:08;4.15;;;1.00;;
41643;SDS011;44236;48.098;11.582;2023-03-13T15:53:37;2.33;;;0.83;;
41643;SDS011;44236;48.098;11.582;2023-03-13T15:56:08;1.83;;;0.80;;
41643;SDS011;44236;48.098;11.582;2023-03-13T15:58:43;1.60;;;0.65;;
41643;SDS011;44236;48.098;11.582;2023-03-13T16:01:10;2.13;;;0.65;;
41643;SDS011;44236;48.098;11.582;2023-03-13T16:03:37;1.42;;;0.63;;
41643;SDS011;44236;48.098;11.582;2023-03-13T16:06:09;1.13;;;0.70;;
41643;SDS011;44236;48.098;11.582;2023-03-13T16:08:39;3.22;;;0.90;;
41643;SDS011;44236;48.098;11.582;2023-03-13T16:11:05;4.22;;;1.17;;
41643;SDS011;44236;48.098;11.582;2023-03-13T16:13:31;2.28;;;0.90;;
41643;SDS011;44236;48.098;11.582;2023-03-13T16:15:57;2.75;;;0.90;;
41643;SDS011;44236;48.098;11.582;2023-03-13T16:18:22;2.33;;;1.25;;
41643;SDS011;44236;48.098;11.582;2023-03-13T16:20:51;3.35;;;1.20;;
41643;SDS011;44236;48.098;11.582;2023-03-13T16:23:17;11.93;;;1.52;;
41643;SDS011;44236;48.098;11.582;2023-03-13T16:25:43;2.55;;;1.40;;
41643;SDS011;44236;48.098;11.582;2023-03-13T16:28:10;4.00;;;1.10;;
41643;SDS011;44236;48.098;11.582;2023-03-13T16:30:37;4.25;;;1.00;;
41643;SDS011;44236;48.098;11.582;2023-03-13T16:33:08;4.13;;;0.80;;
41643;SDS011;44236;48.098;11.582;2023-03-13T16:35:34;2.58;;;1.48;;
41643;SDS011;44236;48.098;11.582;2023-03-13T16:38:00;2.85;;;0.93;;
41643;SDS011;44236;48.098;11.582;2023-03-13T16:40:28;3.53;;;0.80;;
41643;SDS011;44236;48.098;11.582;2023-03-13T16:42:55;4.07;;;1.08;;
41643;SDS011;44236;48.098;11.582;2023-03-13T16:45:21;1.85;;;0.70;;
41643;SDS011;44236;48.098;11.582;2023-03-13T16:47:47;2.45;;;0.73;;
41643;SDS011;44236;48.098;11.582;2023-03-13T16:50:21;3.40;;;0.90;;
41643;SDS011;44236;48.098;11.582;2023-03-13T16:52:56;2.53;;;1.00;;
41643;SDS011;44236;48.098;11.582;2023-03-13T16:55:23;1.65;;;0.65;;
41643;SDS011;44236;48.098;11.582;2023-03-13T16:57:52;2.22;;;1.05;;
41643;SDS011;44236;48.098;11.582;2023-03-13T17:00:20;1.38;;;0.60;;
41643;SDS011;44236;48.098;11.582;2023-03-13T17:02:47;2.17;;;1.05;;
41643;SDS011;44236;48.098;11.582;2023-03-13T17:05:13;4.25;;;1.20;;